createdAt,value
2023-05-11T00:00:31.565Z,10.93
2023-05-11T00:03:01.206Z,11.30
2023-05-11T00:05:29.691Z,10.77
2023-05-11T00:07:58.211Z,12.57
2023-05-11T00:10:26.818Z,12.07
2023-05-11T00:12:55.203Z,13.63
2023-05-11T00:15:23.673Z,13.43
2023-05-11T00:17:52.171Z,13.60
2023-05-11T00:20:23.463Z,12.47
2023-05-11T00:22:51.697Z,13.40
2023-05-11T00:25:20.118Z,13.43
2023-05-11T00:27:48.600Z,15.23
2023-05-11T00:30:17.721Z,15.43
2023-05-11T00:32:46.431Z,14.13
2023-05-11T00:35:14.887Z,14.93
2023-05-11T00:37:44.903Z,14.60
2023-05-11T00:40:13.352Z,15.40
2023-05-11T00:42:41.768Z,15.07
2023-05-11T00:45:11.354Z,15.03
2023-05-11T00:47:39.853Z,16.20
2023-05-11T00:50:09.445Z,15.00
2023-05-11T00:52:37.894Z,15.23
2023-05-11T00:55:08.868Z,16.03
2023-05-11T00:57:37.530Z,16.50
2023-05-11T01:00:07.122Z,16.27
2023-05-11T01:02:35.711Z,16.43
2023-05-11T01:05:04.223Z,16.60
2023-05-11T01:07:38.185Z,16.67
2023-05-11T01:10:16.741Z,17.10
2023-05-11T01:12:54.276Z,16.03
2023-05-11T01:15:28.847Z,17.37
2023-05-11T01:18:02.554Z,17.77
2023-05-11T01:20:32.197Z,16.87
2023-05-11T01:23:18.264Z,17.90
2023-05-11T01:26:06.759Z,18.10
2023-05-11T01:29:17.338Z,17.93
2023-05-11T01:31:49.165Z,17.50
2023-05-11T01:34:20.718Z,17.70
2023-05-11T01:36:53.508Z,18.63
2023-05-11T01:39:26.171Z,18.63
2023-05-11T01:41:56.855Z,19.23
2023-05-11T01:44:28.744Z,18.63
2023-05-11T01:47:01.289Z,18.80
2023-05-11T01:49:33.473Z,19.30
2023-05-11T01:52:04.054Z,19.37
2023-05-11T01:54:33.788Z,19.73
2023-05-11T01:57:04.155Z,19.13
2023-05-11T01:59:33.917Z,20.47
2023-05-11T02:02:05.255Z,20.07
2023-05-11T02:04:34.374Z,19.30
2023-05-11T02:07:03.437Z,19.53
2023-05-11T02:09:32.957Z,19.30
2023-05-11T02:12:03.288Z,20.20
2023-05-11T02:14:36.699Z,19.20
2023-05-11T02:17:07.696Z,20.13
2023-05-11T02:19:38.093Z,20.17
2023-05-11T02:22:07.514Z,19.80
2023-05-11T02:24:36.655Z,20.13
2023-05-11T02:27:05.577Z,20.27
2023-05-11T02:29:34.485Z,20.73
2023-05-11T02:32:09.078Z,19.63
2023-05-11T02:34:42.012Z,20.03
2023-05-11T02:37:14.078Z,19.53
2023-05-11T02:39:45.574Z,19.90
2023-05-11T02:42:16.520Z,20.13
2023-05-11T02:44:52.108Z,20.10
2023-05-11T02:47:23.748Z,20.63
2023-05-11T02:49:54.251Z,20.43
2023-05-11T02:52:23.953Z,20.20
2023-05-11T02:54:53.868Z,19.50
2023-05-11T02:57:23.011Z,20.07
2023-05-11T02:59:51.706Z,20.50
2023-05-11T03:02:21.348Z,20.27
2023-05-11T03:04:49.808Z,20.67
2023-05-11T03:07:18.259Z,20.90
2023-05-11T03:09:47.104Z,20.10
2023-05-11T03:12:16.457Z,19.40
2023-05-11T03:14:45.706Z,20.47
2023-05-11T03:17:16.040Z,20.97
2023-05-11T03:19:46.349Z,20.53
2023-05-11T03:22:15.879Z,18.77
2023-05-11T03:24:44.859Z,19.67
2023-05-11T03:27:13.506Z,19.07
2023-05-11T03:29:45.270Z,20.00
2023-05-11T03:32:13.818Z,20.07
2023-05-11T03:34:42.363Z,19.77
2023-05-11T03:37:14.539Z,19.13
2023-05-11T03:39:44.718Z,20.50
2023-05-11T03:42:15.154Z,20.27
2023-05-11T03:44:45.681Z,19.37
2023-05-11T03:47:16.134Z,20.43
2023-05-11T03:49:46.113Z,19.50
2023-05-11T03:52:15.945Z,19.77
2023-05-11T03:54:44.532Z,20.03
2023-05-11T03:57:13.100Z,20.40
2023-05-11T03:59:41.658Z,19.77
2023-05-11T04:02:10.361Z,18.70
2023-05-11T04:04:38.969Z,20.50
2023-05-11T04:07:07.441Z,19.70
2023-05-11T04:09:37.053Z,19.43
2023-05-11T04:12:05.763Z,19.10
2023-05-11T04:14:34.157Z,19.33
2023-05-11T04:17:02.825Z,19.87
2023-05-11T04:19:31.304Z,19.53
2023-05-11T04:21:59.734Z,20.73
2023-05-11T04:24:28.117Z,19.97
2023-05-11T04:27:00.735Z,20.57
2023-05-11T04:29:29.484Z,19.27
2023-05-11T04:31:58.162Z,19.47
2023-05-11T04:34:26.976Z,19.87
2023-05-11T04:36:55.370Z,20.23
2023-05-11T04:39:23.916Z,19.30
2023-05-11T04:41:52.488Z,18.60
2023-05-11T04:44:22.125Z,19.70
2023-05-11T04:46:50.790Z,19.10
2023-05-11T04:49:19.141Z,20.57
2023-05-11T04:51:47.502Z,18.97
2023-05-11T04:54:16.000Z,20.20
2023-05-11T04:56:44.530Z,20.40
2023-05-11T04:59:12.926Z,20.10
2023-05-11T05:01:42.740Z,19.83
2023-05-11T05:04:11.342Z,19.60
2023-05-11T05:06:39.958Z,20.20
2023-05-11T05:09:08.377Z,19.67
2023-05-11T05:11:37.226Z,19.97
2023-05-11T05:14:05.803Z,21.73
2023-05-11T05:16:34.732Z,20.20
2023-05-11T05:19:04.386Z,19.93
2023-05-11T05:21:34.331Z,20.13
2023-05-11T05:24:03.377Z,21.70
2023-05-11T05:26:31.787Z,20.77
2023-05-11T05:29:00.300Z,22.07
2023-05-11T05:31:28.854Z,21.43
2023-05-11T05:33:57.340Z,22.10
2023-05-11T05:36:26.911Z,23.17
2023-05-11T05:38:55.451Z,22.20
2023-05-11T05:41:24.002Z,21.87
2023-05-11T05:43:52.798Z,21.93
2023-05-11T05:46:21.469Z,22.37
2023-05-11T05:48:49.952Z,21.33
2023-05-11T05:51:18.740Z,23.60
2023-05-11T05:53:48.384Z,23.33
2023-05-11T05:56:17.125Z,22.57
2023-05-11T05:58:45.479Z,23.87
2023-05-11T06:01:13.983Z,22.23
2023-05-11T06:03:42.608Z,22.60
2023-05-11T06:06:11.242Z,23.60
2023-05-11T06:08:39.615Z,23.60
2023-05-11T06:11:09.596Z,22.87
2023-05-11T06:13:38.059Z,25.13
2023-05-11T06:16:06.856Z,25.30
2023-05-11T06:18:35.314Z,26.83
2023-05-11T06:21:03.762Z,26.43
2023-05-11T06:23:32.153Z,26.27
2023-05-11T06:26:00.620Z,27.10
2023-05-11T06:28:30.330Z,27.10
2023-05-11T06:30:59.375Z,28.90
2023-05-11T06:33:27.772Z,29.37
2023-05-11T06:35:56.071Z,29.87
2023-05-11T06:38:24.699Z,29.50
2023-05-11T06:40:54.052Z,30.60
2023-05-11T06:43:22.377Z,28.27
2023-05-11T06:45:52.037Z,29.13
2023-05-11T06:48:23.398Z,30.17
2023-05-11T06:50:51.833Z,28.43
2023-05-11T06:53:20.300Z,28.43
2023-05-11T06:55:49.072Z,28.60
2023-05-11T06:58:20.697Z,30.93
2023-05-11T07:00:49.249Z,30.37
2023-05-11T07:03:19.027Z,29.53
2023-05-11T07:05:47.565Z,29.93
2023-05-11T07:08:16.077Z,28.50
2023-05-11T07:10:44.534Z,28.53
2023-05-11T07:13:12.916Z,28.50
2023-05-11T07:15:41.596Z,29.60
2023-05-11T07:18:10.115Z,29.97
2023-05-11T07:20:40.892Z,30.00
2023-05-11T07:23:09.409Z,28.93
2023-05-11T07:25:37.870Z,29.33
2023-05-11T07:28:06.118Z,29.13
2023-05-11T07:30:34.667Z,28.27
2023-05-11T07:33:03.762Z,27.27
2023-05-11T07:35:32.332Z,27.43
2023-05-11T07:38:03.127Z,26.00
2023-05-11T07:40:31.805Z,24.70
2023-05-11T07:43:00.305Z,24.37
2023-05-11T07:45:28.883Z,23.30
2023-05-11T07:47:57.293Z,23.97
2023-05-11T07:50:25.936Z,22.10
2023-05-11T07:52:54.739Z,23.83
2023-05-11T07:55:25.120Z,22.07
2023-05-11T07:57:54.193Z,22.30
2023-05-11T08:00:23.348Z,23.73
2023-05-11T08:02:52.846Z,23.97
2023-05-11T08:05:21.679Z,25.00
2023-05-11T08:07:50.229Z,23.23
2023-05-11T08:10:18.768Z,24.03
2023-05-11T08:12:48.405Z,23.70
2023-05-11T08:15:17.014Z,23.23
2023-05-11T08:17:46.748Z,24.67
2023-05-11T08:20:16.115Z,25.70
2023-05-11T08:22:45.520Z,22.87
2023-05-11T08:25:14.828Z,23.53
2023-05-11T08:27:43.378Z,22.03
2023-05-11T08:30:14.299Z,22.33
2023-05-11T08:35:14.374Z,21.83
2023-05-11T08:37:42.818Z,21.80
2023-05-11T08:40:14.844Z,21.23
2023-05-11T08:42:49.336Z,20.83
2023-05-11T08:45:20.266Z,17.80
2023-05-11T08:47:50.148Z,16.10
2023-05-11T08:50:18.813Z,16.17
2023-05-11T08:52:47.266Z,12.97
2023-05-11T08:55:15.902Z,10.10
2023-05-11T08:57:46.664Z,9.07
2023-05-11T09:00:16.634Z,7.77
2023-05-11T09:02:47.615Z,8.13
2023-05-11T09:05:17.547Z,7.40
2023-05-11T09:07:48.778Z,6.27
2023-05-11T09:10:17.859Z,7.13
2023-05-11T09:12:46.383Z,6.13
2023-05-11T09:15:14.973Z,5.57
2023-05-11T09:17:43.554Z,5.80
2023-05-11T09:20:13.882Z,6.50
2023-05-11T09:22:46.801Z,5.20
2023-05-11T09:25:17.180Z,5.90
2023-05-11T09:27:46.466Z,5.90
2023-05-11T09:30:22.120Z,5.13
2023-05-11T09:32:55.640Z,6.15
2023-05-11T09:35:26.991Z,6.47
2023-05-11T09:38:02.430Z,6.13
2023-05-11T09:40:34.237Z,6.20
2023-05-11T09:43:03.875Z,6.60
2023-05-11T09:45:39.653Z,6.50
2023-05-11T09:48:09.604Z,6.63
2023-05-11T09:50:39.553Z,6.63
2023-05-11T09:53:07.920Z,7.37
2023-05-11T09:55:36.590Z,7.05
2023-05-11T09:58:05.022Z,7.27
2023-05-11T10:00:34.217Z,6.30
2023-05-11T10:03:04.329Z,6.00
2023-05-11T10:05:34.080Z,6.57
2023-05-11T10:08:05.098Z,6.37
2023-05-11T10:10:34.620Z,6.63
2023-05-11T10:13:03.902Z,6.80
2023-05-11T10:15:36.694Z,6.80
2023-05-11T10:18:07.771Z,6.17
2023-05-11T10:20:36.270Z,6.17
2023-05-11T10:23:07.068Z,5.90
2023-05-11T10:25:35.763Z,6.05
2023-05-11T10:28:04.296Z,6.97
2023-05-11T10:30:34.628Z,6.25
2023-05-11T10:33:03.408Z,5.90
2023-05-11T10:35:32.787Z,5.47
2023-05-11T10:38:02.851Z,6.30
2023-05-11T10:40:37.460Z,5.88
2023-05-11T10:43:30.836Z,6.13
2023-05-11T10:46:08.357Z,6.05
2023-05-11T10:49:15.794Z,5.13
2023-05-11T10:52:11.064Z,6.10
2023-05-11T10:55:06.527Z,6.00
2023-05-11T10:58:02.754Z,6.00
2023-05-11T11:01:20.089Z,6.15
2023-05-11T11:03:59.544Z,6.00
2023-05-11T11:06:29.408Z,6.03
2023-05-11T11:08:59.424Z,6.97
2023-05-11T11:11:32.802Z,6.45
2023-05-11T11:14:05.708Z,6.10
2023-05-11T11:16:34.795Z,6.38
2023-05-11T11:19:37.569Z,6.28
2023-05-11T11:22:06.782Z,6.13
2023-05-11T11:24:45.912Z,6.15
2023-05-11T11:27:14.795Z,5.75
2023-05-11T11:30:17.412Z,5.47
2023-05-11T11:32:46.377Z,5.22
2023-05-11T11:35:49.023Z,4.97
2023-05-11T11:38:19.749Z,4.75
2023-05-11T11:40:51.642Z,5.13
2023-05-11T11:43:22.382Z,4.88
2023-05-11T11:45:56.048Z,4.00
2023-05-11T11:48:31.178Z,4.45
2023-05-11T11:51:05.537Z,3.88
2023-05-11T11:54:07.323Z,4.05
2023-05-11T11:56:48.141Z,3.28
2023-05-11T11:59:17.135Z,4.15
2023-05-11T12:01:52.301Z,3.75
2023-05-11T12:04:48.103Z,3.88
2023-05-11T12:07:17.179Z,3.90
2023-05-11T12:09:47.303Z,3.45
2023-05-11T12:12:19.890Z,4.07
2023-05-11T12:14:49.947Z,3.92
2023-05-11T12:17:26.286Z,3.80
2023-05-11T12:19:55.134Z,4.68
2023-05-11T12:22:24.115Z,4.57
2023-05-11T12:24:52.609Z,3.10
2023-05-11T12:27:21.061Z,3.78
2023-05-11T12:29:52.849Z,3.67
2023-05-11T12:32:29.169Z,3.03
2023-05-11T12:35:01.528Z,3.20
2023-05-11T12:37:31.040Z,3.58
2023-05-11T12:40:00.455Z,3.60
2023-05-11T12:42:29.150Z,3.60
2023-05-11T12:44:57.636Z,3.13
2023-05-11T12:47:27.544Z,2.70
2023-05-11T12:49:56.106Z,2.88
2023-05-11T12:52:25.587Z,3.20
2023-05-11T12:55:00.323Z,2.45
2023-05-11T12:57:31.223Z,2.53
2023-05-11T13:00:11.232Z,2.85
2023-05-11T13:02:50.349Z,2.80
2023-05-11T13:05:20.536Z,3.88
2023-05-11T13:07:49.642Z,3.08
2023-05-11T13:10:25.002Z,2.22
2023-05-11T13:12:53.856Z,3.25
2023-05-11T13:15:23.418Z,2.97
2023-05-11T13:18:00.322Z,3.30
2023-05-11T13:20:29.913Z,2.90
2023-05-11T13:23:06.093Z,3.50
2023-05-11T13:25:35.441Z,3.03
2023-05-11T13:28:04.092Z,2.83
2023-05-11T13:30:34.960Z,3.47
2023-05-11T13:33:05.072Z,3.30
2023-05-11T13:35:33.724Z,3.42
2023-05-11T13:38:02.279Z,3.60
2023-05-11T13:40:30.718Z,3.60
2023-05-11T13:43:00.434Z,3.95
2023-05-11T13:45:29.447Z,2.65
2023-05-11T13:47:57.916Z,3.70
2023-05-11T13:50:28.541Z,3.75
2023-05-11T13:52:57.290Z,4.15
2023-05-11T13:55:26.141Z,4.15
2023-05-11T13:57:54.728Z,4.20
2023-05-11T14:00:23.420Z,4.40
2023-05-11T14:02:52.749Z,4.65
2023-05-11T14:05:21.871Z,4.63
2023-05-11T14:07:51.703Z,4.35
2023-05-11T14:10:21.573Z,4.25
2023-05-11T14:12:50.094Z,3.70
2023-05-11T14:15:18.651Z,4.40
2023-05-11T14:17:47.231Z,4.35
2023-05-11T14:20:16.834Z,5.30
2023-05-11T14:22:45.258Z,4.32
2023-05-11T14:25:14.934Z,4.15
2023-05-11T14:27:43.932Z,3.70
2023-05-11T14:30:13.082Z,4.93
2023-05-11T14:32:41.664Z,4.40
2023-05-11T14:35:10.462Z,4.60
2023-05-11T14:37:39.283Z,4.53
2023-05-11T14:40:08.528Z,5.57
2023-05-11T14:42:38.388Z,5.10
2023-05-11T14:45:07.772Z,5.45
2023-05-11T14:47:36.744Z,5.13
2023-05-11T14:50:05.605Z,5.18
2023-05-11T14:52:34.096Z,5.25
2023-05-11T14:55:02.711Z,4.82
2023-05-11T14:57:31.501Z,5.07
2023-05-11T15:00:01.101Z,5.50
2023-05-11T15:02:30.641Z,5.10
2023-05-11T15:04:59.057Z,5.32
2023-05-11T15:07:27.824Z,5.97
2023-05-11T15:09:56.750Z,5.00
2023-05-11T15:12:25.535Z,5.07
2023-05-11T15:14:54.105Z,5.13
2023-05-11T15:17:23.779Z,4.88
2023-05-11T15:19:52.202Z,5.35
2023-05-11T15:22:22.454Z,5.18
2023-05-11T15:24:50.847Z,5.40
2023-05-11T15:27:19.215Z,5.63
2023-05-11T15:29:47.617Z,5.47
2023-05-11T15:32:17.243Z,5.00
2023-05-11T15:34:58.458Z,5.13
2023-05-11T15:37:27.381Z,5.20
2023-05-11T15:39:56.127Z,5.22
2023-05-11T15:42:24.812Z,5.50
2023-05-11T15:44:53.553Z,5.47
2023-05-11T15:47:22.057Z,5.20
2023-05-11T15:49:52.727Z,5.93
2023-05-11T15:52:21.592Z,5.00
2023-05-11T15:54:50.224Z,5.68
2023-05-11T15:57:18.757Z,6.38
2023-05-11T15:59:48.145Z,5.20
2023-05-11T16:02:16.548Z,5.50
2023-05-11T16:04:44.957Z,5.55
2023-05-11T16:07:14.809Z,5.72
2023-05-11T16:09:43.295Z,6.13
2023-05-11T16:12:11.738Z,6.45
2023-05-11T16:14:40.157Z,5.88
2023-05-11T16:17:08.830Z,6.43
2023-05-11T16:19:37.511Z,5.75
2023-05-11T16:22:06.087Z,6.38
2023-05-11T16:24:35.810Z,7.28
2023-05-11T16:27:04.391Z,7.13
2023-05-11T16:29:33.644Z,5.68
2023-05-11T16:32:02.136Z,6.50
2023-05-11T16:34:30.621Z,5.75
2023-05-11T16:36:59.437Z,6.40
2023-05-11T16:39:28.251Z,7.28
2023-05-11T16:41:58.178Z,6.50
2023-05-11T16:44:26.592Z,5.88
2023-05-11T16:46:55.169Z,6.70
2023-05-11T16:49:23.938Z,5.78
2023-05-11T16:51:53.247Z,6.53
2023-05-11T16:54:21.891Z,7.15
2023-05-11T16:56:50.184Z,6.25
2023-05-11T16:59:19.863Z,6.47
2023-05-11T17:01:49.383Z,7.20
2023-05-11T17:04:18.346Z,7.28
2023-05-11T17:06:46.998Z,6.72
2023-05-11T17:09:15.546Z,6.78
2023-05-11T17:11:44.435Z,7.15
2023-05-11T17:14:13.039Z,6.15
2023-05-11T17:16:43.005Z,6.18
2023-05-11T17:19:11.772Z,7.07
2023-05-11T17:21:40.422Z,7.63
2023-05-11T17:24:09.082Z,7.72
2023-05-11T17:26:47.090Z,6.07
2023-05-11T17:29:16.707Z,6.80
2023-05-11T17:31:48.952Z,7.38
2023-05-11T17:34:17.890Z,7.57
2023-05-11T17:36:46.381Z,6.32
2023-05-11T17:39:17.065Z,6.68
2023-05-11T17:41:45.647Z,7.40
2023-05-11T17:44:14.511Z,8.05
2023-05-11T17:46:43.169Z,7.30
2023-05-11T17:49:13.130Z,7.22
2023-05-11T17:51:41.881Z,7.00
2023-05-11T17:54:10.203Z,7.35
2023-05-11T17:56:38.630Z,7.13
2023-05-11T17:59:07.204Z,7.10
2023-05-11T18:01:35.559Z,7.18
2023-05-11T18:04:04.753Z,7.72
2023-05-11T18:06:34.778Z,7.38
2023-05-11T18:09:05.085Z,8.18
2023-05-11T18:11:33.637Z,7.72
2023-05-11T18:14:02.062Z,8.00
2023-05-11T18:16:30.602Z,8.57
2023-05-11T18:18:59.765Z,8.65
2023-05-11T18:21:28.471Z,7.75
2023-05-11T18:23:58.453Z,7.88
2023-05-11T18:26:27.273Z,8.30
2023-05-11T18:28:56.213Z,8.37
2023-05-11T18:31:24.791Z,7.75
2023-05-11T18:33:53.093Z,8.77
2023-05-11T18:36:21.335Z,8.77
2023-05-11T18:38:50.056Z,8.55
2023-05-11T18:41:19.716Z,8.85
2023-05-11T18:43:48.462Z,8.60
2023-05-11T18:46:17.180Z,9.63
2023-05-11T18:48:45.797Z,9.77
2023-05-11T18:51:18.887Z,10.17
2023-05-11T18:53:47.379Z,10.15
2023-05-11T18:56:16.054Z,9.30
2023-05-11T18:58:46.547Z,9.70
2023-05-11T19:01:15.761Z,9.85
2023-05-11T19:03:44.443Z,10.57
2023-05-11T19:06:13.262Z,11.07
2023-05-11T19:08:42.182Z,9.40
2023-05-11T19:11:12.360Z,9.90
2023-05-11T19:13:40.959Z,9.97
2023-05-11T19:16:11.054Z,10.50
2023-05-11T19:18:40.143Z,10.37
2023-05-11T19:21:08.824Z,11.00
2023-05-11T19:23:37.480Z,11.00
2023-05-11T19:26:06.177Z,10.97
2023-05-11T19:28:34.699Z,11.30
2023-05-11T19:31:04.575Z,11.57
2023-05-11T19:33:34.558Z,13.17
2023-05-11T19:36:03.553Z,13.37
2023-05-11T19:38:31.962Z,14.77
2023-05-11T19:41:00.817Z,14.07
2023-05-11T19:43:29.202Z,13.03
2023-05-11T19:45:57.518Z,14.03
2023-05-11T19:48:25.958Z,13.30
2023-05-11T19:50:56.232Z,14.03
2023-05-11T19:53:24.602Z,14.93
2023-05-11T19:55:53.183Z,14.23
2023-05-11T19:58:22.248Z,13.60
2023-05-11T20:00:50.824Z,12.27
2023-05-11T20:03:19.396Z,13.70
2023-05-11T20:05:48.076Z,12.17
2023-05-11T20:08:18.050Z,13.07
2023-05-11T20:10:46.540Z,13.10
2023-05-11T20:13:14.958Z,13.47
2023-05-11T20:15:43.470Z,14.53
2023-05-11T20:18:11.939Z,14.67
2023-05-11T20:20:40.337Z,14.50
2023-05-11T20:23:09.291Z,15.47
2023-05-11T20:25:43.800Z,15.37
2023-05-11T20:28:12.393Z,16.60
2023-05-11T20:30:41.235Z,14.93
2023-05-11T20:35:41.366Z,14.43
2023-05-11T20:38:09.890Z,14.70
2023-05-11T20:40:39.688Z,15.47
2023-05-11T20:43:08.326Z,16.83
2023-05-11T20:45:36.894Z,16.07
2023-05-11T20:48:05.518Z,14.67
2023-05-11T20:50:34.036Z,15.13
2023-05-11T20:53:02.614Z,15.90
2023-05-11T20:55:30.990Z,15.73
2023-05-11T20:58:00.668Z,15.83
2023-05-11T21:00:29.116Z,15.87
2023-05-11T21:02:57.600Z,14.90
2023-05-11T21:05:26.034Z,16.03
2023-05-11T21:07:54.495Z,16.97
2023-05-11T21:10:23.292Z,17.10
2023-05-11T21:12:51.812Z,16.33
2023-05-11T21:15:21.600Z,17.63
2023-05-11T21:17:50.082Z,17.17
2023-05-11T21:20:18.845Z,16.40
2023-05-11T21:22:47.656Z,16.67
2023-05-11T21:25:16.132Z,17.53
2023-05-11T21:27:44.372Z,15.57
2023-05-11T21:30:13.546Z,18.53
2023-05-11T21:32:43.148Z,20.93
2023-05-11T21:35:11.766Z,19.97
2023-05-11T21:37:40.370Z,20.50
2023-05-11T21:40:10.128Z,19.00
2023-05-11T21:42:38.637Z,19.90
2023-05-11T21:45:08.361Z,18.57
2023-05-11T21:47:37.116Z,15.80
2023-05-11T21:50:08.703Z,17.67
2023-05-11T21:52:37.498Z,19.00
2023-05-11T21:55:06.472Z,18.63
2023-05-11T21:57:34.923Z,18.70
2023-05-11T22:00:05.554Z,18.20
2023-05-11T22:02:33.916Z,20.53
2023-05-11T22:05:02.279Z,19.57
2023-05-11T22:07:31.891Z,18.60
2023-05-11T22:10:00.262Z,19.53
2023-05-11T22:12:28.823Z,16.17
2023-05-11T22:14:57.491Z,14.40
2023-05-11T22:17:26.045Z,12.77
2023-05-11T22:19:54.474Z,15.10
2023-05-11T22:22:22.892Z,12.47
2023-05-11T22:24:53.365Z,12.50
2023-05-11T22:27:21.809Z,13.77
2023-05-11T22:29:52.193Z,12.10
2023-05-11T22:32:21.772Z,13.37
2023-05-11T22:34:58.444Z,10.97
2023-05-11T22:37:26.948Z,9.93
2023-05-11T22:39:56.537Z,8.43
2023-05-11T22:42:24.966Z,9.40
2023-05-11T22:44:53.587Z,8.93
2023-05-11T22:47:22.093Z,8.80
2023-05-11T22:49:50.485Z,7.97
2023-05-11T22:52:19.057Z,9.90
2023-05-11T22:54:47.740Z,9.30
2023-05-11T22:57:17.386Z,9.37
2023-05-11T22:59:46.797Z,6.53
2023-05-11T23:02:15.381Z,7.57
2023-05-11T23:04:44.410Z,7.83
2023-05-11T23:07:12.948Z,7.27
2023-05-11T23:09:42.037Z,5.93
2023-05-11T23:12:10.740Z,5.97
2023-05-11T23:14:40.814Z,6.43
2023-05-11T23:17:09.255Z,6.23
2023-05-11T23:19:37.800Z,6.00
2023-05-11T23:22:06.503Z,5.77
2023-05-11T23:24:34.979Z,6.50
2023-05-11T23:27:04.144Z,6.90
2023-05-11T23:29:32.646Z,6.97
2023-05-11T23:32:03.525Z,9.00
2023-05-11T23:34:32.000Z,11.70
2023-05-11T23:37:00.462Z,12.33
2023-05-11T23:39:29.040Z,13.20
2023-05-11T23:41:57.483Z,16.13
2023-05-11T23:44:25.920Z,16.93
2023-05-11T23:46:54.377Z,19.30
2023-05-11T23:49:24.623Z,18.43
2023-05-11T23:51:54.084Z,19.83
2023-05-11T23:54:22.532Z,22.50
2023-05-11T23:56:51.092Z,22.17
2023-05-11T23:59:19.541Z,22.67
